sensor_id;sensor_type;location;lat;lon;timestamp;pressure;altitude;pressure_sealevel;temperature;humidity
75006;BME280;63553;51.814;4.600;2023-07-02T00:00:30;100878.16;;;22.02;61.58
75006;BME280;63553;51.814;4.600;2023-07-02T00:02:55;100876.44;;;21.84;61.72
75006;BME280;63553;51.814;4.600;2023-07-02T00:05:20;100880.78;;;21.71;61.24
75006;BME280;63553;51.814;4.600;2023-07-02T00:07:46;100870.09;;;22.11;60.56
75006;BME280;63553;51.814;4.600;2023-07-02T00:10:11;100882.22;;;22.05;59.80
75006;BME280;63553;51.814;4.600;2023-07-02T00:12:37;100874.06;;;21.93;59.65
75006;BME280;63553;51.814;4.600;2023-07-02T00:15:02;100880.13;;;21.88;59.40
75006;BME280;63553;51.814;4.600;2023-07-02T00:17:29;100882.19;;;21.94;58.38
75006;BME280;63553;51.814;4.600;2023-07-02T00:19:54;100878.53;;;22.01;57.73
75006;BME280;63553;51.814;4.600;2023-07-02T00:22:20;100875.13;;;21.64;57.49
75006;BME280;63553;51.814;4.600;2023-07-02T00:24:46;100886.13;;;21.86;56.85
75006;BME280;63553;51.814;4.600;2023-07-02T00:27:11;100876.50;;;21.98;56.52
75006;BME280;63553;51.814;4.600;2023-07-02T00:29:37;100880.53;;;21.90;56.08
75006;BME280;63553;51.814;4.600;2023-07-02T00:32:02;100883.00;;;22.02;55.87
75006;BME280;63553;51.814;4.600;2023-07-02T00:34:28;100888.66;;;21.98;55.48
75006;BME280;63553;51.814;4.600;2023-07-02T00:36:53;100880.53;;;21.93;55.43
75006;BME280;63553;51.814;4.600;2023-07-02T00:39:18;100886.09;;;21.76;55.56
75006;BME280;63553;51.814;4.600;2023-07-02T00:41:44;100886.13;;;21.83;54.82
75006;BME280;63553;51.814;4.600;2023-07-02T00:44:13;100887.81;;;21.91;54.78
75006;BME280;63553;51.814;4.600;2023-07-02T00:46:38;100896.63;;;21.79;54.54
75006;BME280;63553;51.814;4.600;2023-07-02T00:49:04;100887.34;;;21.82;54.37
75006;BME280;63553;51.814;4.600;2023-07-02T00:51:30;100883.31;;;21.86;54.05
75006;BME280;63553;51.814;4.600;2023-07-02T00:53:57;100885.31;;;21.79;53.61
75006;BME280;63553;51.814;4.600;2023-07-02T00:56:24;100885.31;;;21.86;53.49
75006;BME280;63553;51.814;4.600;2023-07-02T00:58:51;100891.44;;;21.88;53.76
75006;BME280;63553;51.814;4.600;2023-07-02T01:01:21;100896.72;;;21.93;53.94
75006;BME280;63553;51.814;4.600;2023-07-02T01:04:02;100897.88;;;21.85;53.63
75006;BME280;63553;51.814;4.600;2023-07-02T01:06:33;100900.78;;;21.95;53.49
75006;BME280;63553;51.814;4.600;2023-07-02T01:09:01;100912.75;;;21.71;54.97
75006;BME280;63553;51.814;4.600;2023-07-02T01:11:31;100901.53;;;21.85;54.64
75006;BME280;63553;51.814;4.600;2023-07-02T01:14:04;100915.56;;;21.71;53.33
75006;BME280;63553;51.814;4.600;2023-07-02T01:16:31;100910.75;;;21.75;53.07
75006;BME280;63553;51.814;4.600;2023-07-02T01:18:58;100914.28;;;21.54;52.71
75006;BME280;63553;51.814;4.600;2023-07-02T01:21:27;100913.47;;;21.54;52.44
75006;BME280;63553;51.814;4.600;2023-07-02T01:23:53;100914.25;;;21.51;51.27
75006;BME280;63553;51.814;4.600;2023-07-02T01:26:19;100916.81;;;21.74;51.55
75006;BME280;63553;51.814;4.600;2023-07-02T01:28:44;100922.44;;;21.67;50.91
75006;BME280;63553;51.814;4.600;2023-07-02T01:31:09;100915.59;;;21.68;51.22
75006;BME280;63553;51.814;4.600;2023-07-02T01:33:35;100922.81;;;21.62;50.60
75006;BME280;63553;51.814;4.600;2023-07-02T01:36:00;100913.94;;;21.67;50.58
75006;BME280;63553;51.814;4.600;2023-07-02T01:38:25;100913.09;;;21.63;49.94
75006;BME280;63553;51.814;4.600;2023-07-02T01:40:52;100919.28;;;21.17;48.42
75006;BME280;63553;51.814;4.600;2023-07-02T01:43:17;100913.34;;;21.36;49.88
75006;BME280;63553;51.814;4.600;2023-07-02T01:45:43;100910.13;;;21.41;49.85
75006;BME280;63553;51.814;4.600;2023-07-02T01:48:08;100910.56;;;21.43;49.98
75006;BME280;63553;51.814;4.600;2023-07-02T01:50:33;100914.75;;;21.64;49.96
75006;BME280;63553;51.814;4.600;2023-07-02T01:52:59;100914.38;;;21.11;46.52
75006;BME280;63553;51.814;4.600;2023-07-02T01:55:24;100909.81;;;21.53;49.54
75006;BME280;63553;51.814;4.600;2023-07-02T01:57:50;100907.75;;;21.47;50.00
75006;BME280;63553;51.814;4.600;2023-07-02T02:00:15;100914.78;;;21.13;48.66
75006;BME280;63553;51.814;4.600;2023-07-02T02:02:42;100913.91;;;21.59;50.34
75006;BME280;63553;51.814;4.600;2023-07-02T02:05:07;100914.66;;;21.49;50.05
75006;BME280;63553;51.814;4.600;2023-07-02T02:07:34;100919.41;;;21.38;50.33
75006;BME280;63553;51.814;4.600;2023-07-02T02:10:01;100925.16;;;20.58;47.64
75006;BME280;63553;51.814;4.600;2023-07-02T02:12:26;100923.81;;;19.81;51.47
75006;BME280;63553;51.814;4.600;2023-07-02T02:14:53;100925.50;;;19.33;51.15
75006;BME280;63553;51.814;4.600;2023-07-02T02:17:19;100923.38;;;20.09;51.19
75006;BME280;63553;51.814;4.600;2023-07-02T02:19:44;100931.78;;;19.76;51.98
75006;BME280;63553;51.814;4.600;2023-07-02T02:22:09;100926.19;;;19.50;54.63
75006;BME280;63553;51.814;4.600;2023-07-02T02:24:35;100925.09;;;19.58;50.49
75006;BME280;63553;51.814;4.600;2023-07-02T02:27:00;100933.75;;;20.02;54.01
75006;BME280;63553;51.814;4.600;2023-07-02T02:29:26;100933.06;;;20.82;52.30
75006;BME280;63553;51.814;4.600;2023-07-02T02:31:51;100928.69;;;21.35;50.17
75006;BME280;63553;51.814;4.600;2023-07-02T02:34:16;100942.28;;;21.16;50.22
75006;BME280;63553;51.814;4.600;2023-07-02T02:36:42;100940.50;;;21.00;48.90
75006;BME280;63553;51.814;4.600;2023-07-02T02:39:07;100945.31;;;21.40;50.06
75006;BME280;63553;51.814;4.600;2023-07-02T02:41:32;100944.13;;;21.45;49.65
75006;BME280;63553;51.814;4.600;2023-07-02T02:43:58;100941.69;;;21.43;48.65
75006;BME280;63553;51.814;4.600;2023-07-02T02:46:23;100941.38;;;21.59;48.65
75006;BME280;63553;51.814;4.600;2023-07-02T02:48:49;100945.66;;;21.35;48.85
75006;BME280;63553;51.814;4.600;2023-07-02T02:51:15;100954.34;;;21.64;48.46
75006;BME280;63553;51.814;4.600;2023-07-02T02:53:40;100952.91;;;21.33;48.82
75006;BME280;63553;51.814;4.600;2023-07-02T02:56:06;100946.97;;;21.48;48.57
75006;BME280;63553;51.814;4.600;2023-07-02T02:58:31;100946.22;;;21.55;48.19
75006;BME280;63553;51.814;4.600;2023-07-02T03:00:57;100940.16;;;21.56;48.06
75006;BME280;63553;51.814;4.600;2023-07-02T03:03:22;100948.97;;;21.44;48.20
75006;BME280;63553;51.814;4.600;2023-07-02T03:05:50;100960.72;;;21.50;48.00
75006;BME280;63553;51.814;4.600;2023-07-02T03:08:15;100955.41;;;21.38;48.40
75006;BME280;63553;51.814;4.600;2023-07-02T03:10:41;100956.66;;;21.44;48.28
75006;BME280;63553;51.814;4.600;2023-07-02T03:13:07;100955.41;;;21.41;48.14
75006;BME280;63553;51.814;4.600;2023-07-02T03:15:32;100952.22;;;21.50;48.14
75006;BME280;63553;51.814;4.600;2023-07-02T03:17:57;100950.97;;;21.40;48.67
75006;BME280;63553;51.814;4.600;2023-07-02T03:20:23;100950.56;;;21.42;48.60
75006;BME280;63553;51.814;4.600;2023-07-02T03:22:48;100955.41;;;21.41;48.57
75006;BME280;63553;51.814;4.600;2023-07-02T03:25:14;100955.56;;;20.71;49.97
75006;BME280;63553;51.814;4.600;2023-07-02T03:27:39;100961.38;;;21.26;49.23
75006;BME280;63553;51.814;4.600;2023-07-02T03:30:05;100969.63;;;21.04;49.85
75006;BME280;63553;51.814;4.600;2023-07-02T03:32:31;100964.19;;;21.29;49.54
75006;BME280;63553;51.814;4.600;2023-07-02T03:34:56;100973.97;;;21.39;49.24
75006;BME280;63553;51.814;4.600;2023-07-02T03:37:22;100969.13;;;21.39;49.48
75006;BME280;63553;51.814;4.600;2023-07-02T03:39:47;100967.47;;;21.31;49.23
75006;BME280;63553;51.814;4.600;2023-07-02T03:42:12;100972.75;;;21.36;49.57
75006;BME280;63553;51.814;4.600;2023-07-02T03:44:38;100973.09;;;20.87;48.27
75006;BME280;63553;51.814;4.600;2023-07-02T03:47:03;100967.50;;;21.38;49.69
75006;BME280;63553;51.814;4.600;2023-07-02T03:49:29;100968.03;;;21.54;49.29
75006;BME280;63553;51.814;4.600;2023-07-02T03:51:54;100964.63;;;21.31;50.00
75006;BME280;63553;51.814;4.600;2023-07-02T03:54:19;100972.53;;;21.12;50.12
75006;BME280;63553;51.814;4.600;2023-07-02T03:56:45;100981.50;;;20.43;51.09
75006;BME280;63553;51.814;4.600;2023-07-02T03:59:10;100984.72;;;20.12;52.08
75006;BME280;63553;51.814;4.600;2023-07-02T04:01:35;100992.41;;;19.59;51.98
75006;BME280;63553;51.814;4.600;2023-07-02T04:04:01;100991.56;;;20.78;51.89
75006;BME280;63553;51.814;4.600;2023-07-02T04:06:26;100993.63;;;21.21;50.43
75006;BME280;63553;51.814;4.600;2023-07-02T04:08:52;100987.56;;;21.19;50.23
75006;BME280;63553;51.814;4.600;2023-07-02T04:11:17;100989.66;;;21.29;49.95
75006;BME280;63553;51.814;4.600;2023-07-02T04:13:42;100995.31;;;20.89;50.42
75006;BME280;63553;51.814;4.600;2023-07-02T04:16:08;101002.78;;;21.08;50.24
75006;BME280;63553;51.814;4.600;2023-07-02T04:18:33;101000.94;;;21.73;49.14
75006;BME280;63553;51.814;4.600;2023-07-02T04:20:59;101005.22;;;21.56;48.63
75006;BME280;63553;51.814;4.600;2023-07-02T04:23:25;101003.19;;;22.08;48.17
75006;BME280;63553;51.814;4.600;2023-07-02T04:25:50;101010.84;;;22.04;47.74
75006;BME280;63553;51.814;4.600;2023-07-02T04:28:16;101010.81;;;21.97;48.19
75006;BME280;63553;51.814;4.600;2023-07-02T04:30:42;101016.34;;;21.83;48.52
75006;BME280;63553;51.814;4.600;2023-07-02T04:33:07;101004.72;;;21.91;48.53
75006;BME280;63553;51.814;4.600;2023-07-02T04:35:33;101012.03;;;21.99;48.03
75006;BME280;63553;51.814;4.600;2023-07-02T04:37:59;101017.16;;;21.83;48.14
75006;BME280;63553;51.814;4.600;2023-07-02T04:40:25;101017.75;;;21.52;48.75
75006;BME280;63553;51.814;4.600;2023-07-02T04:42:51;101023.38;;;21.99;47.90
75006;BME280;63553;51.814;4.600;2023-07-02T04:45:23;101018.88;;;21.91;48.19
75006;BME280;63553;51.814;4.600;2023-07-02T04:47:49;101022.59;;;21.51;48.09
75006;BME280;63553;51.814;4.600;2023-07-02T04:50:15;101026.88;;;21.86;47.94
75006;BME280;63553;51.814;4.600;2023-07-02T04:52:41;101032.84;;;21.70;47.84
75006;BME280;63553;51.814;4.600;2023-07-02T04:55:06;101027.34;;;21.40;48.53
75006;BME280;63553;51.814;4.600;2023-07-02T04:57:32;101038.91;;;21.72;48.42
75006;BME280;63553;51.814;4.600;2023-07-02T04:59:57;101041.75;;;21.72;48.58
75006;BME280;63553;51.814;4.600;2023-07-02T05:02:23;101032.16;;;21.87;48.13
75006;BME280;63553;51.814;4.600;2023-07-02T05:04:48;101028.09;;;21.85;47.77
75006;BME280;63553;51.814;4.600;2023-07-02T05:07:13;101041.81;;;21.83;48.05
75006;BME280;63553;51.814;4.600;2023-07-02T05:09:39;101039.81;;;21.87;47.74
75006;BME280;63553;51.814;4.600;2023-07-02T05:12:04;101029.88;;;21.52;48.00
75006;BME280;63553;51.814;4.600;2023-07-02T05:14:30;101043.00;;;21.78;47.75
75006;BME280;63553;51.814;4.600;2023-07-02T05:16:55;101040.22;;;21.82;48.09
75006;BME280;63553;51.814;4.600;2023-07-02T05:19:20;101041.97;;;21.49;48.11
75006;BME280;63553;51.814;4.600;2023-07-02T05:21:46;101045.69;;;20.46;49.34
75006;BME280;63553;51.814;4.600;2023-07-02T05:24:11;101045.31;;;21.18;49.19
75006;BME280;63553;51.814;4.600;2023-07-02T05:26:36;101058.78;;;21.83;48.12
75006;BME280;63553;51.814;4.600;2023-07-02T05:29:02;101040.97;;;21.28;48.26
75006;BME280;63553;51.814;4.600;2023-07-02T05:31:27;101050.94;;;21.58;48.42
75006;BME280;63553;51.814;4.600;2023-07-02T05:33:53;101053.34;;;21.56;48.42
75006;BME280;63553;51.814;4.600;2023-07-02T05:36:19;101052.06;;;21.98;47.67
75006;BME280;63553;51.814;4.600;2023-07-02T05:38:45;101061.81;;;21.13;48.91
75006;BME280;63553;51.814;4.600;2023-07-02T05:41:10;101060.34;;;21.70;48.26
75006;BME280;63553;51.814;4.600;2023-07-02T05:43:35;101062.06;;;21.37;48.21
75006;BME280;63553;51.814;4.600;2023-07-02T05:46:01;101068.41;;;21.68;48.21
75006;BME280;63553;51.814;4.600;2023-07-02T05:48:27;101075.16;;;22.03;47.54
75006;BME280;63553;51.814;4.600;2023-07-02T05:50:52;101071.44;;;21.92;47.65
75006;BME280;63553;51.814;4.600;2023-07-02T05:53:18;101067.91;;;22.06;47.79
75006;BME280;63553;51.814;4.600;2023-07-02T05:55:43;101078.19;;;21.33;48.49
75006;BME280;63553;51.814;4.600;2023-07-02T05:58:09;101080.03;;;21.59;47.26
75006;BME280;63553;51.814;4.600;2023-07-02T06:00:34;101080.31;;;21.43;48.00
75006;BME280;63553;51.814;4.600;2023-07-02T06:03:00;101087.66;;;21.51;48.77
75006;BME280;63553;51.814;4.600;2023-07-02T06:05:25;101088.75;;;21.84;48.43
75006;BME280;63553;51.814;4.600;2023-07-02T06:07:50;101090.66;;;21.69;48.02
75006;BME280;63553;51.814;4.600;2023-07-02T06:10:16;101088.28;;;21.78;48.39
75006;BME280;63553;51.814;4.600;2023-07-02T06:12:42;101093.56;;;21.80;48.35
75006;BME280;63553;51.814;4.600;2023-07-02T06:15:09;101092.75;;;21.79;48.24
75006;BME280;63553;51.814;4.600;2023-07-02T06:17:34;101086.25;;;21.75;48.23
75006;BME280;63553;51.814;4.600;2023-07-02T06:19:59;101092.31;;;21.77;48.12
75006;BME280;63553;51.814;4.600;2023-07-02T06:22:25;101100.84;;;21.81;48.01
75006;BME280;63553;51.814;4.600;2023-07-02T06:24:50;101096.44;;;21.87;47.88
75006;BME280;63553;51.814;4.600;2023-07-02T06:27:15;101100.03;;;21.80;47.53
75006;BME280;63553;51.814;4.600;2023-07-02T06:29:41;101102.47;;;21.82;47.68
75006;BME280;63553;51.814;4.600;2023-07-02T06:32:06;101097.88;;;21.63;47.91
75006;BME280;63553;51.814;4.600;2023-07-02T06:34:32;101106.44;;;21.74;47.69
75006;BME280;63553;51.814;4.600;2023-07-02T06:36:57;101117.84;;;21.81;47.25
75006;BME280;63553;51.814;4.600;2023-07-02T06:39:22;101106.19;;;21.89;47.06
75006;BME280;63553;51.814;4.600;2023-07-02T06:41:48;101098.94;;;21.88;46.82
75006;BME280;63553;51.814;4.600;2023-07-02T06:44:13;101110.41;;;22.06;46.61
75006;BME280;63553;51.814;4.600;2023-07-02T06:46:38;101112.56;;;22.27;46.49
75006;BME280;63553;51.814;4.600;2023-07-02T06:49:04;101118.19;;;22.23;45.88
75006;BME280;63553;51.814;4.600;2023-07-02T06:51:29;101114.84;;;22.10;46.17
75006;BME280;63553;51.814;4.600;2023-07-02T06:53:55;101120.25;;;22.30;46.25
75006;BME280;63553;51.814;4.600;2023-07-02T06:56:20;101112.13;;;22.21;46.03
75006;BME280;63553;51.814;4.600;2023-07-02T06:58:46;101125.88;;;22.23;45.91
75006;BME280;63553;51.814;4.600;2023-07-02T07:01:11;101129.44;;;22.09;45.37
75006;BME280;63553;51.814;4.600;2023-07-02T07:03:37;101137.69;;;22.35;45.55
75006;BME280;63553;51.814;4.600;2023-07-02T07:06:02;101134.28;;;22.74;44.70
75006;BME280;63553;51.814;4.600;2023-07-02T07:08:28;101136.06;;;23.10;43.96
75006;BME280;63553;51.814;4.600;2023-07-02T07:10:54;101132.53;;;23.45;43.11
75006;BME280;63553;51.814;4.600;2023-07-02T07:13:19;101135.34;;;24.54;42.47
75006;BME280;63553;51.814;4.600;2023-07-02T07:15:44;101138.34;;;25.27;41.41
75006;BME280;63553;51.814;4.600;2023-07-02T07:18:10;101146.22;;;25.67;41.10
75006;BME280;63553;51.814;4.600;2023-07-02T07:20:35;101143.56;;;25.94;40.95
75006;BME280;63553;51.814;4.600;2023-07-02T07:23:02;101151.16;;;26.15;40.17
75006;BME280;63553;51.814;4.600;2023-07-02T07:25:28;101157.16;;;25.00;39.91
75006;BME280;63553;51.814;4.600;2023-07-02T07:27:54;101168.69;;;24.11;40.31
75006;BME280;63553;51.814;4.600;2023-07-02T07:30:20;101154.06;;;24.27;39.68
75006;BME280;63553;51.814;4.600;2023-07-02T07:32:49;101162.19;;;24.07;40.10
75006;BME280;63553;51.814;4.600;2023-07-02T07:35:14;101159.75;;;23.99;40.50
75006;BME280;63553;51.814;4.600;2023-07-02T07:37:40;101152.88;;;23.93;40.67
75006;BME280;63553;51.814;4.600;2023-07-02T07:40:06;101157.72;;;23.92;40.37
75006;BME280;63553;51.814;4.600;2023-07-02T07:42:31;101157.75;;;24.17;39.95
75006;BME280;63553;51.814;4.600;2023-07-02T07:44:57;101157.69;;;24.52;40.01
75006;BME280;63553;51.814;4.600;2023-07-02T07:47:22;101157.72;;;24.06;40.64
75006;BME280;63553;51.814;4.600;2023-07-02T07:49:47;101165.03;;;24.14;40.65
75006;BME280;63553;51.814;4.600;2023-07-02T07:52:13;101175.56;;;24.00;41.18
75006;BME280;63553;51.814;4.600;2023-07-02T07:54:38;101163.59;;;25.18;40.34
75006;BME280;63553;51.814;4.600;2023-07-02T07:57:04;101172.66;;;24.84;39.71
75006;BME280;63553;51.814;4.600;2023-07-02T07:59:30;101172.75;;;24.39;39.94
75006;BME280;63553;51.814;4.600;2023-07-02T08:01:55;101177.59;;;24.38;39.95
75006;BME280;63553;51.814;4.600;2023-07-02T08:04:20;101175.97;;;24.44;38.87
75006;BME280;63553;51.814;4.600;2023-07-02T08:06:45;101172.75;;;23.75;40.87
75006;BME280;63553;51.814;4.600;2023-07-02T08:09:11;101168.25;;;23.60;41.07
75006;BME280;63553;51.814;4.600;2023-07-02T08:11:36;101172.75;;;23.75;40.11
75006;BME280;63553;51.814;4.600;2023-07-02T08:14:01;101164.19;;;23.82;40.24
75006;BME280;63553;51.814;4.600;2023-07-02T08:16:27;101171.97;;;24.17;39.58
75006;BME280;63553;51.814;4.600;2023-07-02T08:18:52;101176.34;;;23.58;40.22
75006;BME280;63553;51.814;4.600;2023-07-02T08:21:17;101176.34;;;23.51;40.18
75006;BME280;63553;51.814;4.600;2023-07-02T08:23:43;101180.78;;;23.41;40.16
75006;BME280;63553;51.814;4.600;2023-07-02T08:26:09;101183.06;;;23.11;40.55
75006;BME280;63553;51.814;4.600;2023-07-02T08:28:36;101183.16;;;23.36;40.43
75006;BME280;63553;51.814;4.600;2023-07-02T08:31:01;101190.13;;;23.59;40.30
75006;BME280;63553;51.814;4.600;2023-07-02T08:33:26;101176.38;;;23.72;40.04
75006;BME280;63553;51.814;4.600;2023-07-02T08:35:52;101187.50;;;23.08;41.41
75006;BME280;63553;51.814;4.600;2023-07-02T08:38:17;101180.72;;;23.34;40.66
75006;BME280;63553;51.814;4.600;2023-07-02T08:40:42;101190.50;;;23.47;40.27
75006;BME280;63553;51.814;4.600;2023-07-02T08:43:08;101184.50;;;23.98;38.47
75006;BME280;63553;51.814;4.600;2023-07-02T08:45:33;101183.31;;;23.96;38.45
75006;BME280;63553;51.814;4.600;2023-07-02T08:47:59;101185.72;;;24.64;36.74
75006;BME280;63553;51.814;4.600;2023-07-02T08:50:24;101185.25;;;24.94;35.81
75006;BME280;63553;51.814;4.600;2023-07-02T08:52:50;101193.59;;;25.33;35.09
75006;BME280;63553;51.814;4.600;2023-07-02T08:55:16;101200.44;;;25.46;34.73
75006;BME280;63553;51.814;4.600;2023-07-02T08:57:53;101199.34;;;25.22;34.65
75006;BME280;63553;51.814;4.600;2023-07-02T09:00:19;101194.25;;;25.65;33.74
75006;BME280;63553;51.814;4.600;2023-07-02T09:02:45;101195.84;;;25.70;33.81
75006;BME280;63553;51.814;4.600;2023-07-02T09:05:11;101195.97;;;25.49;34.44
75006;BME280;63553;51.814;4.600;2023-07-02T09:07:49;101202.72;;;25.79;33.29
75006;BME280;63553;51.814;4.600;2023-07-02T09:10:29;101199.25;;;25.51;33.77
75006;BME280;63553;51.814;4.600;2023-07-02T09:13:06;101189.66;;;25.85;34.07
75006;BME280;63553;51.814;4.600;2023-07-02T09:15:36;101202.22;;;25.91;33.58
75006;BME280;63553;51.814;4.600;2023-07-02T09:18:01;101201.00;;;25.16;33.84
75006;BME280;63553;51.814;4.600;2023-07-02T09:20:33;101204.66;;;25.89;32.94
75006;BME280;63553;51.814;4.600;2023-07-02T09:22:59;101205.44;;;25.93;32.80
75006;BME280;63553;51.814;4.600;2023-07-02T09:25:36;101201.31;;;26.02;32.83
75006;BME280;63553;51.814;4.600;2023-07-02T09:28:01;101199.78;;;25.86;32.89
75006;BME280;63553;51.814;4.600;2023-07-02T09:30:27;101207.75;;;26.13;33.05
75006;BME280;63553;51.814;4.600;2023-07-02T09:32:52;101207.22;;;25.73;33.03
75006;BME280;63553;51.814;4.600;2023-07-02T09:35:19;101198.72;;;25.66;32.79
75006;BME280;63553;51.814;4.600;2023-07-02T09:37:46;101189.31;;;25.76;32.46
75006;BME280;63553;51.814;4.600;2023-07-02T09:40:12;101199.50;;;25.74;32.37
75006;BME280;63553;51.814;4.600;2023-07-02T09:42:38;101196.41;;;25.51;32.49
75006;BME280;63553;51.814;4.600;2023-07-02T09:45:07;101198.94;;;25.24;32.68
75006;BME280;63553;51.814;4.600;2023-07-02T09:47:35;101202.97;;;25.30;32.06
75006;BME280;63553;51.814;4.600;2023-07-02T09:50:04;101203.38;;;25.25;32.27
75006;BME280;63553;51.814;4.600;2023-07-02T09:52:34;101209.00;;;25.42;32.50
75006;BME280;63553;51.814;4.600;2023-07-02T09:55:00;101199.34;;;25.15;32.89
75006;BME280;63553;51.814;4.600;2023-07-02T09:57:25;101204.97;;;25.33;31.88
75006;BME280;63553;51.814;4.600;2023-07-02T09:59:52;101203.84;;;25.16;31.54
75006;BME280;63553;51.814;4.600;2023-07-02T10:02:17;101213.69;;;24.83;32.44
75006;BME280;63553;51.814;4.600;2023-07-02T10:04:45;101210.47;;;24.81;32.71
75006;BME280;63553;51.814;4.600;2023-07-02T10:07:12;101214.91;;;24.75;32.73
75006;BME280;63553;51.814;4.600;2023-07-02T10:09:42;101224.25;;;24.83;32.88
75006;BME280;63553;51.814;4.600;2023-07-02T10:12:18;101219.38;;;24.94;32.80
75006;BME280;63553;51.814;4.600;2023-07-02T10:14:45;101221.44;;;24.65;33.26
75006;BME280;63553;51.814;4.600;2023-07-02T10:17:53;101222.69;;;24.15;33.60
75006;BME280;63553;51.814;4.600;2023-07-02T10:20:08;101236.78;;;23.62;33.81
75006;BME280;63553;51.814;4.600;2023-07-02T10:22:49;101233.13;;;22.75;35.16
75006;BME280;63553;51.814;4.600;2023-07-02T10:25:30;101236.47;;;22.91;34.90
75006;BME280;63553;51.814;4.600;2023-07-02T10:27:56;101228.09;;;23.16;35.44
75006;BME280;63553;51.814;4.600;2023-07-02T10:30:37;101235.97;;;23.65;34.60
75006;BME280;63553;51.814;4.600;2023-07-02T10:33:32;101232.59;;;23.35;35.79
75006;BME280;63553;51.814;4.600;2023-07-02T10:35:57;101232.72;;;23.59;35.27
75006;BME280;63553;51.814;4.600;2023-07-02T10:38:24;101236.75;;;23.48;35.85
75006;BME280;63553;51.814;4.600;2023-07-02T10:40:56;101219.72;;;23.48;35.62
75006;BME280;63553;51.814;4.600;2023-07-02T10:43:26;101233.16;;;23.72;35.21
75006;BME280;63553;51.814;4.600;2023-07-02T10:45:52;101244.72;;;23.28;35.79
75006;BME280;63553;51.814;4.600;2023-07-02T10:48:18;101242.97;;;22.99;36.54
75006;BME280;63553;51.814;4.600;2023-07-02T10:50:43;101241.88;;;23.21;36.21
75006;BME280;63553;51.814;4.600;2023-07-02T10:53:15;101238.19;;;23.10;36.42
75006;BME280;63553;51.814;4.600;2023-07-02T10:55:41;101247.56;;;23.21;36.23
75006;BME280;63553;51.814;4.600;2023-07-02T10:58:08;101243.94;;;23.31;36.25
75006;BME280;63553;51.814;4.600;2023-07-02T11:00:46;101243.94;;;23.31;36.41
75006;BME280;63553;51.814;4.600;2023-07-02T11:03:18;101237.84;;;23.29;35.86
75006;BME280;63553;51.814;4.600;2023-07-02T11:05:48;101238.34;;;23.42;36.52
75006;BME280;63553;51.814;4.600;2023-07-02T11:08:13;101242.28;;;23.23;37.04
75006;BME280;63553;51.814;4.600;2023-07-02T11:10:39;101245.50;;;23.14;37.23
75006;BME280;63553;51.814;4.600;2023-07-02T11:15:40;101243.66;;;22.78;37.60
75006;BME280;63553;51.814;4.600;2023-07-02T11:18:11;101246.56;;;22.85;37.41
75006;BME280;63553;51.814;4.600;2023-07-02T11:20:38;101247.63;;;22.66;37.83
75006;BME280;63553;51.814;4.600;2023-07-02T11:23:04;101249.38;;;22.82;37.39
75006;BME280;63553;51.814;4.600;2023-07-02T11:25:29;101246.25;;;23.01;37.35
75006;BME280;63553;51.814;4.600;2023-07-02T11:28:04;101254.72;;;22.97;37.29
75006;BME280;63553;51.814;4.600;2023-07-02T11:30:30;101255.13;;;22.99;37.39
75006;BME280;63553;51.814;4.600;2023-07-02T11:32:55;101250.56;;;22.77;37.80
75006;BME280;63553;51.814;4.600;2023-07-02T11:35:22;101248.91;;;22.73;37.73
75006;BME280;63553;51.814;4.600;2023-07-02T11:37:58;101247.66;;;22.70;37.44
75006;BME280;63553;51.814;4.600;2023-07-02T11:40:24;101253.88;;;22.86;37.25
75006;BME280;63553;51.814;4.600;2023-07-02T11:42:49;101249.38;;;22.82;37.12
75006;BME280;63553;51.814;4.600;2023-07-02T11:45:14;101248.88;;;22.69;37.31
75006;BME280;63553;51.814;4.600;2023-07-02T11:47:40;101260.31;;;22.83;37.19
75006;BME280;63553;51.814;4.600;2023-07-02T11:50:06;101257.84;;;22.78;37.48
75006;BME280;63553;51.814;4.600;2023-07-02T11:52:32;101265.19;;;22.90;37.29
75006;BME280;63553;51.814;4.600;2023-07-02T11:54:57;101259.06;;;22.77;37.96
75006;BME280;63553;51.814;4.600;2023-07-02T11:57:22;101261.56;;;22.93;37.87
75006;BME280;63553;51.814;4.600;2023-07-02T11:59:48;101255.44;;;22.80;37.88
75006;BME280;63553;51.814;4.600;2023-07-02T12:02:14;101262.25;;;22.72;38.48
75006;BME280;63553;51.814;4.600;2023-07-02T12:04:40;101265.13;;;22.76;38.60
75006;BME280;63553;51.814;4.600;2023-07-02T12:07:05;101259.94;;;22.88;38.78
75006;BME280;63553;51.814;4.600;2023-07-02T12:09:31;101267.25;;;22.89;38.43
75006;BME280;63553;51.814;4.600;2023-07-02T12:11:56;101268.91;;;22.97;38.73
75006;BME280;63553;51.814;4.600;2023-07-02T12:14:21;101271.75;;;22.97;39.03
75006;BME280;63553;51.814;4.600;2023-07-02T12:16:47;101263.09;;;22.76;39.67
75006;BME280;63553;51.814;4.600;2023-07-02T12:19:12;101268.25;;;22.63;40.32
75006;BME280;63553;51.814;4.600;2023-07-02T12:21:37;101271.63;;;22.80;39.79
75006;BME280;63553;51.814;4.600;2023-07-02T12:24:03;101267.50;;;22.70;40.04
75006;BME280;63553;51.814;4.600;2023-07-02T12:26:33;101277.53;;;22.60;40.70
75006;BME280;63553;51.814;4.600;2023-07-02T12:28:58;101276.81;;;22.67;39.69
75006;BME280;63553;51.814;4.600;2023-07-02T12:31:24;101278.34;;;22.61;40.01
75006;BME280;63553;51.814;4.600;2023-07-02T12:33:49;101282.78;;;22.58;40.23
75006;BME280;63553;51.814;4.600;2023-07-02T12:36:14;101286.75;;;22.47;40.36
75006;BME280;63553;51.814;4.600;2023-07-02T12:38:40;101277.53;;;22.60;40.33
75006;BME280;63553;51.814;4.600;2023-07-02T12:41:05;101285.34;;;22.71;40.18
75006;BME280;63553;51.814;4.600;2023-07-02T12:43:31;101260.66;;;22.75;39.94
75006;BME280;63553;51.814;4.600;2023-07-02T12:45:56;101284.28;;;22.45;41.10
75006;BME280;63553;51.814;4.600;2023-07-02T12:48:21;101292.75;;;22.38;41.46